Miami, Florida
Traffic Map
Current Weather Conditions
Miami, Florida
Broken Clouds
Broken Clouds
26°
Feels Like: 27°
Wind Chill: 26° Ceiling: 3500
Heat Index: 27° Visibility: 10mi
Dew Point: 21° Wind: 12mph
Humidity: 76% Direction: 40° (NE)
Pressure: 29.81in Gusts: 21mph
Raw Report DataKMIA 241953Z 04010G18KT 10SM FEW025 BKN035 BKN042 26/21 A2981 RMK AO2 SLP094 T02560211
Traffic Incident Summary
Active as of:
Severity:
Category:
InformationThere was an issue retrieving the traffic information for this location. Please try a different location or try again shortly.
Advertisements
Track Severe Weather on mobile